Time;durP1;ratioP1;P1;durP2;ratioP2;P2;SDS_P1;SDS_P2;PMS_P1;PMS_P2;Temp;Humidity;BMP_temperature;BMP_pressure;BME280_temperature;BME280_humidity;BME280_pressure;Samples;Min_cycle;Max_cycle;Signal;HPM_P1;HPM_P2
2021/07/10 00:00:26;;;;;;;13.90;12.77;;;15.50;99.90;;;;;;5034467;28;20561;-66
2021/07/10 00:02:51;;;;;;;13.90;12.80;;;15.50;99.90;;;;;;5035059;28;20174;-64
2021/07/10 00:05:17;;;;;;;14.70;13.20;;;15.40;99.90;;;;;;5034902;28;20178;-64
2021/07/10 00:07:43;;;;;;;14.27;12.90;;;15.40;99.90;;;;;;5035047;28;20177;-66
2021/07/10 00:10:12;;;;;;;12.70;11.40;;;15.30;99.90;;;;;;5034543;28;20194;-65
2021/07/10 00:12:38;;;;;;;11.53;10.53;;;15.30;99.90;;;;;;5034674;28;20552;-64
2021/07/10 00:15:07;;;;;;;12.73;11.50;;;15.30;99.90;;;;;;5035152;28;20928;-64
2021/07/10 00:17:32;;;;;;;11.80;10.27;;;15.30;99.90;;;;;;5034524;28;20460;-64
2021/07/10 00:19:58;;;;;;;14.80;11.23;;;15.30;99.90;;;;;;5034311;28;20491;-64
2021/07/10 00:22:23;;;;;;;12.20;11.30;;;15.20;99.90;;;;;;5034742;28;20188;-64
2021/07/10 00:24:49;;;;;;;17.17;10.80;;;15.20;99.90;;;;;;5034718;28;20166;-64
2021/07/10 00:27:14;;;;;;;11.83;10.73;;;15.10;99.90;;;;;;5034622;28;20170;-64
2021/07/10 00:29:40;;;;;;;12.40;11.30;;;15.10;99.90;;;;;;5034368;28;20194;-64
2021/07/10 00:32:06;;;;;;;16.53;11.37;;;15.10;99.90;;;;;;5030892;28;20190;-64
2021/07/10 00:34:31;;;;;;;12.70;11.60;;;15.10;99.90;;;;;;5014657;28;20621;-64
2021/07/10 00:36:57;;;;;;;11.40;10.30;;;15.10;99.90;;;;;;5014665;28;20234;-65
2021/07/10 00:39:23;;;;;;;10.90;10.10;;;15.10;99.90;;;;;;5014218;28;20194;-64
2021/07/10 00:41:48;;;;;;;11.37;10.47;;;15.00;99.90;;;;;;5014560;28;20697;-64
2021/07/10 00:44:14;;;;;;;13.23;11.07;;;15.00;99.90;;;;;;5014534;28;20171;-64
2021/07/10 00:46:39;;;;;;;12.23;10.97;;;15.00;99.90;;;;;;5014350;28;20178;-64
2021/07/10 00:49:05;;;;;;;10.73;9.90;;;15.00;99.90;;;;;;5013938;28;20179;-64
2021/07/10 00:51:30;;;;;;;10.90;9.90;;;15.00;99.90;;;;;;5014291;28;20289;-64
2021/07/10 00:53:56;;;;;;;10.30;9.50;;;15.00;99.90;;;;;;5014325;28;20710;-64
2021/07/10 00:56:22;;;;;;;12.10;11.10;;;15.00;99.90;;;;;;5014231;28;20641;-64
2021/07/10 00:58:49;;;;;;;11.40;10.50;;;14.90;99.90;;;;;;5013977;28;20163;-64
2021/07/10 01:01:15;;;;;;;13.83;11.87;;;14.90;99.90;;;;;;5014354;28;20461;-66
2021/07/10 01:03:44;;;;;;;10.17;9.30;;;14.90;99.90;;;;;;5014007;28;20839;-64
2021/07/10 01:06:11;;;;;;;11.20;10.30;;;14.90;99.90;;;;;;5014050;28;20251;-64
2021/07/10 01:08:36;;;;;;;11.97;10.93;;;14.90;99.90;;;;;;5013956;28;20426;-64
2021/07/10 01:11:03;;;;;;;13.63;12.43;;;14.80;99.90;;;;;;5013381;28;20452;-66
2021/07/10 01:13:28;;;;;;;11.87;10.77;;;14.70;99.90;;;;;;5013969;28;20178;-64
2021/07/10 01:15:54;;;;;;;10.80;9.87;;;14.70;99.90;;;;;;5013785;28;20505;-64
2021/07/10 01:18:20;;;;;;;10.87;10.00;;;14.80;99.90;;;;;;5013670;28;20225;-64
2021/07/10 01:20:52;;;;;;;11.23;10.27;;;14.80;99.90;;;;;;5013717;28;20226;-64
2021/07/10 01:23:19;;;;;;;11.67;10.57;;;14.70;99.90;;;;;;5014107;28;20421;-64
2021/07/10 01:25:46;;;;;;;25.37;11.73;;;14.70;99.90;;;;;;5013782;28;20805;-64
2021/07/10 01:28:13;;;;;;;13.07;11.77;;;14.70;99.90;;;;;;5013667;28;20410;-66
2021/07/10 01:30:40;;;;;;;10.97;9.97;;;14.70;99.90;;;;;;5013273;28;20473;-64
2021/07/10 01:33:06;;;;;;;11.57;10.73;;;14.60;99.90;;;;;;5024907;28;20466;-64
2021/07/10 01:35:32;;;;;;;10.67;9.77;;;14.60;99.90;;;;;;5033328;28;20500;-64
2021/07/10 01:37:59;;;;;;;10.83;9.90;;;14.60;99.90;;;;;;5033290;28;20420;-64
2021/07/10 01:40:25;;;;;;;10.43;9.40;;;14.60;99.90;;;;;;5032817;28;20494;-64
2021/07/10 01:42:52;;;;;;;11.77;10.67;;;14.50;99.90;;;;;;5033212;28;20414;-64
2021/07/10 01:45:20;;;;;;;11.33;10.47;;;14.50;99.90;;;;;;5033012;28;20425;-64
2021/07/10 01:47:46;;;;;;;11.73;10.80;;;14.50;99.90;;;;;;5033260;28;20425;-64
2021/07/10 01:50:12;;;;;;;12.27;11.17;;;14.40;99.90;;;;;;5032817;28;20447;-63
2021/07/10 01:52:39;;;;;;;11.97;11.00;;;14.40;99.90;;;;;;5032872;28;20457;-64
2021/07/10 01:55:07;;;;;;;11.20;10.23;;;14.40;99.90;;;;;;5032982;28;20412;-64
2021/07/10 01:57:33;;;;;;;12.53;11.47;;;14.40;99.90;;;;;;5032849;28;20437;-64
2021/07/10 01:59:58;;;;;;;11.93;10.93;;;14.40;99.90;;;;;;5032256;28;20464;-64
2021/07/10 02:02:24;;;;;;;13.00;11.87;;;14.40;99.90;;;;;;5032792;28;20179;-64
2021/07/10 02:04:52;;;;;;;13.00;11.97;;;14.40;99.90;;;;;;5032878;28;20643;-64
2021/07/10 02:07:18;;;;;;;11.20;10.20;;;14.40;99.90;;;;;;5032738;28;20175;-64
2021/07/10 02:09:45;;;;;;;11.83;10.90;;;14.40;99.90;;;;;;5032284;28;20445;-64
2021/07/10 02:12:15;;;;;;;11.80;10.70;;;14.40;99.90;;;;;;5032481;28;20457;-64
2021/07/10 02:14:41;;;;;;;12.03;11.00;;;14.30;99.90;;;;;;5032567;28;20910;-64
2021/07/10 02:17:06;;;;;;;11.67;10.73;;;14.30;99.90;;;;;;5032487;28;20412;-63
2021/07/10 02:19:32;;;;;;;11.40;10.50;;;14.20;99.90;;;;;;5032195;28;20194;-64
2021/07/10 02:21:58;;;;;;;12.27;11.23;;;14.20;99.90;;;;;;5031717;28;20628;-64
2021/07/10 02:24:24;;;;;;;11.50;10.70;;;14.20;99.90;;;;;;5032447;28;20425;-64
2021/07/10 02:26:49;;;;;;;12.60;11.43;;;14.20;99.90;;;;;;5032261;28;20662;-64
2021/07/10 02:29:15;;;;;;;14.20;10.50;;;14.20;99.90;;;;;;5031945;28;20222;-64
2021/07/10 02:31:41;;;;;;;12.27;11.27;;;14.20;99.90;;;;;;5032307;28;20202;-66
2021/07/10 02:34:07;;;;;;;11.67;10.67;;;14.10;99.90;;;;;;5032233;28;20409;-64
2021/07/10 02:36:32;;;;;;;13.40;12.20;;;14.10;99.90;;;;;;5032247;28;20167;-64
2021/07/10 02:38:58;;;;;;;13.63;12.43;;;14.10;99.90;;;;;;5031800;28;20516;-64
2021/07/10 02:41:24;;;;;;;12.20;11.17;;;14.00;99.90;;;;;;5032027;28;20181;-64
2021/07/10 02:43:50;;;;;;;12.33;11.43;;;14.00;99.90;;;;;;5032095;28;20902;-64
2021/07/10 02:46:19;;;;;;;13.10;11.83;;;14.00;99.90;;;;;;5032303;28;20457;-64
2021/07/10 02:48:46;;;;;;;12.20;11.20;;;14.00;99.90;;;;;;5031750;28;20725;-65
2021/07/10 02:51:11;;;;;;;12.40;11.30;;;13.90;99.90;;;;;;5031980;28;20460;-64
2021/07/10 02:53:37;;;;;;;12.70;11.67;;;14.00;99.90;;;;;;5031971;28;20944;-64
2021/07/10 02:56:03;;;;;;;11.87;10.73;;;14.00;99.90;;;;;;5031870;28;20170;-64
2021/07/10 02:58:28;;;;;;;11.50;10.60;;;14.00;99.90;;;;;;5031591;28;20166;-64
2021/07/10 03:00:54;;;;;;;12.33;11.20;;;13.90;99.90;;;;;;5031914;28;20284;-64
2021/07/10 03:03:20;;;;;;;15.80;12.10;;;13.80;99.90;;;;;;5031861;28;20632;-64
2021/07/10 03:05:45;;;;;;;12.30;11.20;;;13.80;99.90;;;;;;5031902;28;20508;-64
2021/07/10 03:08:11;;;;;;;12.30;11.30;;;13.80;99.90;;;;;;5031834;28;20175;-64
2021/07/10 03:10:36;;;;;;;13.10;11.90;;;13.80;99.90;;;;;;5031416;28;20186;-64
2021/07/10 03:13:02;;;;;;;12.97;11.80;;;13.80;99.90;;;;;;5031743;28;20567;-64
2021/07/10 03:15:28;;;;;;;12.67;11.67;;;13.70;99.90;;;;;;5031864;28;20170;-64
2021/07/10 03:17:54;;;;;;;13.00;11.90;;;13.60;99.90;;;;;;5031770;28;20177;-63
2021/07/10 03:20:22;;;;;;;14.60;13.20;;;13.60;99.90;;;;;;5031417;28;20524;-64
2021/07/10 03:22:49;;;;;;;13.33;12.03;;;13.60;99.90;;;;;;5031757;28;20833;-64
2021/07/10 03:25:16;;;;;;;14.20;13.00;;;13.60;99.90;;;;;;5031595;28;20421;-64
2021/07/10 03:27:43;;;;;;;14.17;13.07;;;13.60;99.90;;;;;;5031640;28;20421;-64
2021/07/10 03:30:10;;;;;;;13.07;12.07;;;13.60;99.90;;;;;;5031339;28;20452;-64
2021/07/10 03:32:36;;;;;;;15.20;13.80;;;13.60;99.90;;;;;;5024617;28;20461;-65
2021/07/10 03:35:02;;;;;;;14.87;13.37;;;13.60;99.90;;;;;;5015915;28;20421;-64
2021/07/10 03:37:28;;;;;;;13.00;11.90;;;13.60;99.90;;;;;;5015691;28;20696;-64
2021/07/10 03:39:53;;;;;;;13.27;12.10;;;13.60;99.90;;;;;;5015256;28;20532;-64
2021/07/10 03:42:19;;;;;;;15.03;13.57;;;13.60;99.90;;;;;;5015551;28;20258;-64
2021/07/10 03:44:44;;;;;;;16.40;15.00;;;13.60;99.90;;;;;;5015678;28;20205;-64
2021/07/10 03:47:10;;;;;;;13.87;12.67;;;13.60;99.90;;;;;;5015565;28;20716;-64
2021/07/10 03:49:35;;;;;;;13.77;12.57;;;13.70;99.90;;;;;;5015186;28;20198;-64
2021/07/10 03:52:01;;;;;;;13.37;12.20;;;13.70;99.90;;;;;;5015463;28;20197;-64
2021/07/10 03:54:27;;;;;;;14.13;12.73;;;13.70;99.90;;;;;;5015273;28;20564;-64
2021/07/10 03:56:52;;;;;;;14.90;13.40;;;13.80;99.90;;;;;;5015353;28;20178;-64
2021/07/10 03:59:18;;;;;;;17.17;15.63;;;13.80;99.90;;;;;;5015449;28;20218;-66
2021/07/10 04:01:45;;;;;;;14.87;13.77;;;13.80;99.90;;;;;;5015370;28;20178;-67
2021/07/10 04:04:14;;;;;;;12.47;11.47;;;13.90;99.90;;;;;;5015276;28;20178;-65
2021/07/10 04:06:40;;;;;;;13.60;12.30;;;13.90;99.90;;;;;;5015263;28;20414;-66
2021/07/10 04:09:06;;;;;;;12.93;11.73;;;13.90;99.90;;;;;;5014732;28;20428;-66
2021/07/10 04:11:32;;;;;;;18.23;13.77;;;13.90;99.90;;;;;;5014980;28;20461;-66
2021/07/10 04:13:58;;;;;;;14.07;12.97;;;14.00;99.90;;;;;;5015065;28;20472;-66
2021/07/10 04:16:24;;;;;;;12.57;11.57;;;14.10;99.90;;;;;;5014979;28;20496;-65
2021/07/10 04:18:49;;;;;;;11.33;10.53;;;14.20;99.90;;;;;;5014680;28;20175;-66
2021/07/10 04:21:15;;;;;;;13.33;10.67;;;14.30;99.90;;;;;;5014964;28;20660;-66
2021/07/10 04:23:41;;;;;;;11.27;10.37;;;14.30;99.90;;;;;;5014816;28;20175;-66
2021/07/10 04:26:07;;;;;;;13.10;11.90;;;14.40;99.90;;;;;;5014798;28;20270;-65
2021/07/10 04:28:33;;;;;;;11.30;10.40;;;14.50;99.90;;;;;;5014434;28;20429;-66
2021/07/10 04:30:59;;;;;;;11.97;11.13;;;14.60;99.90;;;;;;5014848;28;20461;-66
2021/07/10 04:33:24;;;;;;;12.33;11.27;;;14.70;99.90;;;;;;5028698;28;20517;-66
2021/07/10 04:35:50;;;;;;;11.60;10.70;;;14.80;99.90;;;;;;5034447;28;20424;-66
2021/07/10 04:38:15;;;;;;;12.10;11.20;;;14.80;99.90;;;;;;5034254;28;20321;-65
2021/07/10 04:40:42;;;;;;;12.90;11.90;;;15.00;99.90;;;;;;5034172;28;20906;-66
2021/07/10 04:43:09;;;;;;;11.57;10.67;;;15.10;99.90;;;;;;5034349;28;20635;-66
2021/07/10 04:45:35;;;;;;;12.40;11.40;;;15.10;99.90;;;;;;5033444;28;20515;-66
2021/07/10 04:48:00;;;;;;;13.23;12.13;;;15.20;99.90;;;;;;5034054;28;20444;-65
2021/07/10 04:50:26;;;;;;;12.97;11.53;;;15.30;99.90;;;;;;5033834;28;20202;-66
2021/07/10 04:52:51;;;;;;;13.23;12.03;;;15.50;99.90;;;;;;5033996;28;20209;-67
2021/07/10 04:55:17;;;;;;;12.93;11.83;;;15.60;99.90;;;;;;5034059;28;20167;-66
2021/07/10 04:57:45;;;;;;;13.20;12.00;;;15.80;99.90;;;;;;5034058;28;20170;-66
2021/07/10 05:00:11;;;;;;;15.33;14.03;;;16.00;99.90;;;;;;5033542;28;20252;-66
2021/07/10 05:02:37;;;;;;;13.90;12.90;;;16.10;99.90;;;;;;5033895;28;20425;-66
2021/07/10 05:05:03;;;;;;;12.93;11.83;;;16.20;99.90;;;;;;5033925;28;20423;-67
2021/07/10 05:07:29;;;;;;;15.43;14.23;;;16.30;99.90;;;;;;5033862;28;20185;-67
2021/07/10 05:09:54;;;;;;;14.80;13.50;;;16.50;99.90;;;;;;5033472;28;20816;-66
2021/07/10 05:12:22;;;;;;;15.37;14.17;;;16.70;99.90;;;;;;5033691;28;20289;-67
2021/07/10 05:14:50;;;;;;;16.53;14.93;;;16.50;99.90;;;;;;5033756;28;20166;-66
2021/07/10 05:17:17;;;;;;;15.03;13.73;;;16.50;99.90;;;;;;5033677;28;20426;-66
2021/07/10 05:19:42;;;;;;;14.57;13.37;;;16.50;99.90;;;;;;5033143;28;20465;-67
2021/07/10 05:22:08;;;;;;;16.10;14.70;;;16.60;99.90;;;;;;5033810;28;20471;-66
2021/07/10 05:24:33;;;;;;;19.90;15.47;;;16.60;99.90;;;;;;5033547;28;20171;-65
2021/07/10 05:26:59;;;;;;;15.23;13.93;;;16.60;99.90;;;;;;5033524;28;20181;-67
2021/07/10 05:29:25;;;;;;;14.83;13.63;;;16.80;99.90;;;;;;5033142;28;20678;-67
2021/07/10 05:31:51;;;;;;;14.87;13.57;;;17.00;99.90;;;;;;5031880;28;20198;-67
2021/07/10 05:34:16;;;;;;;13.30;12.30;;;17.10;99.90;;;;;;5013515;28;20179;-66
2021/07/10 05:36:42;;;;;;;13.23;12.20;;;17.20;99.90;;;;;;5010939;28;20175;-67
2021/07/10 05:39:07;;;;;;;14.53;13.40;;;17.20;99.90;;;;;;5021615;28;20173;-66
2021/07/10 05:41:33;;;;;;;14.37;13.27;;;17.20;99.90;;;;;;5033215;28;20174;-65
2021/07/10 05:43:58;;;;;;;14.27;12.97;;;17.20;99.90;;;;;;5020139;28;20171;-66
2021/07/10 05:46:24;;;;;;;13.47;12.37;;;17.30;99.90;;;;;;5013385;28;20213;-66
2021/07/10 05:48:49;;;;;;;13.93;12.63;;;17.40;99.90;;;;;;5012996;28;20254;-66
2021/07/10 05:51:15;;;;;;;14.33;12.83;;;17.50;99.90;;;;;;5013151;28;20627;-66
2021/07/10 05:53:40;;;;;;;12.10;11.20;;;17.80;99.90;;;;;;5013425;28;20175;-66
2021/07/10 05:56:06;;;;;;;12.47;11.57;;;18.00;99.90;;;;;;5025590;28;20206;-66
2021/07/10 05:58:32;;;;;;;13.63;12.53;;;18.00;99.90;;;;;;5032605;28;20167;-67
2021/07/10 06:00:57;;;;;;;11.37;10.43;;;18.00;99.90;;;;;;5032714;28;20208;-66
2021/07/10 06:03:23;;;;;;;10.40;9.60;;;18.20;99.90;;;;;;5032680;28;20543;-66
2021/07/10 06:05:48;;;;;;;12.37;11.27;;;18.60;99.90;;;;;;5032683;28;20609;-67
2021/07/10 06:08:14;;;;;;;11.73;10.93;;;18.90;99.90;;;;;;5032580;28;20163;-65
2021/07/10 06:10:40;;;;;;;10.97;9.80;;;19.10;99.90;;;;;;5032382;28;20190;-66
2021/07/10 06:13:05;;;;;;;11.40;10.50;;;19.30;99.90;;;;;;5032552;28;20492;-66
2021/07/10 06:15:31;;;;;;;12.47;11.57;;;19.10;99.90;;;;;;5028542;28;20219;-67
2021/07/10 06:17:57;;;;;;;11.50;10.47;;;19.20;99.90;;;;;;5021125;28;20171;-66
2021/07/10 06:20:22;;;;;;;13.23;10.40;;;19.10;99.90;;;;;;5020900;28;20198;-66
2021/07/10 06:22:51;;;;;;;11.93;11.03;;;19.20;99.90;;;;;;5026715;28;20548;-66
2021/07/10 06:25:18;;;;;;;11.03;10.20;;;19.30;99.90;;;;;;5007221;28;20181;-65
2021/07/10 06:27:45;;;;;;;12.33;11.33;;;19.60;99.90;;;;;;5024149;28;20430;-67
2021/07/10 06:30:13;;;;;;;10.23;9.53;;;19.90;99.90;;;;;;5012227;28;20585;-66
2021/07/10 06:32:39;;;;;;;10.57;9.53;;;20.00;99.90;;;;;;5018154;28;20458;-66
2021/07/10 06:35:08;;;;;;;9.67;8.97;;;19.90;99.90;;;;;;5012537;28;20433;-67
2021/07/10 06:37:34;;;;;;;9.60;8.93;;;20.10;99.90;;;;;;5012500;28;20422;-66
2021/07/10 06:40:00;;;;;;;9.20;8.60;;;20.10;99.90;;;;;;5012286;28;20820;-66
2021/07/10 06:42:26;;;;;;;9.20;8.40;;;20.00;99.90;;;;;;5012471;28;20680;-67
2021/07/10 06:44:51;;;;;;;9.90;9.00;;;20.10;99.90;;;;;;5012413;28;20552;-66
2021/07/10 06:47:19;;;;;;;9.83;8.90;;;20.00;99.90;;;;;;5012335;28;20402;-66
2021/07/10 06:49:44;;;;;;;8.67;8.07;;;20.00;99.90;;;;;;5011925;28;20198;-65
2021/07/10 06:52:10;;;;;;;10.43;8.13;;;20.30;99.90;;;;;;5012446;28;20453;-67
2021/07/10 06:54:35;;;;;;;8.10;7.60;;;20.40;99.90;;;;;;5012426;28;20175;-66
2021/07/10 06:57:01;;;;;;;9.13;7.40;;;20.40;99.90;;;;;;5012207;28;20207;-65
2021/07/10 06:59:26;;;;;;;7.40;6.90;;;20.60;99.90;;;;;;5011783;28;20931;-66
2021/07/10 07:01:52;;;;;;;10.87;9.87;;;20.80;99.90;;;;;;5012239;28;20179;-67
2021/07/10 07:04:18;;;;;;;8.20;7.50;;;20.90;99.90;;;;;;5018177;28;20186;-65
2021/07/10 07:06:44;;;;;;;8.30;7.60;;;21.10;99.90;;;;;;5031869;28;20178;-66
2021/07/10 07:09:10;;;;;;;7.67;7.07;;;21.10;99.90;;;;;;5037727;28;20416;-65
2021/07/10 07:11:35;;;;;;;7.23;6.60;;;21.20;99.90;;;;;;5038533;28;20623;-66
2021/07/10 07:14:01;;;;;;;7.40;6.90;;;21.30;99.90;;;;;;5038449;28;20166;-67
2021/07/10 07:16:26;;;;;;;7.83;7.23;;;21.60;99.90;;;;;;5038361;28;20170;-66
2021/07/10 07:18:52;;;;;;;8.00;7.20;;;21.40;99.90;;;;;;5038074;28;20170;-66
2021/07/10 07:21:17;;;;;;;7.70;7.10;;;21.40;99.90;;;;;;5038174;28;20190;-66
2021/07/10 07:23:43;;;;;;;7.83;6.43;;;21.20;99.90;;;;;;5038356;28;20548;-65
2021/07/10 07:26:09;;;;;;;7.70;7.00;;;21.20;99.90;;;;;;5038372;28;20220;-67
2021/07/10 07:28:36;;;;;;;8.80;8.20;;;21.30;99.90;;;;;;5038035;28;20856;-65
2021/07/10 07:31:03;;;;;;;7.70;7.10;;;21.60;99.90;;;;;;5038099;28;20182;-65
2021/07/10 07:33:29;;;;;;;8.60;7.17;;;22.00;99.90;;;;;;5032541;28;20428;-66
2021/07/10 07:35:55;;;;;;;8.10;7.50;;;22.10;99.90;;;;;;5027839;28;20430;-65
2021/07/10 07:38:21;;;;;;;7.60;7.10;;;22.30;99.90;;;;;;5018168;28;20257;-65
2021/07/10 07:40:47;;;;;;;8.47;7.43;;;22.30;99.90;;;;;;5036784;28;20903;-65
2021/07/10 07:43:12;;;;;;;8.63;7.80;;;22.50;99.90;;;;;;5038214;28;20459;-65
2021/07/10 07:45:38;;;;;;;7.30;6.60;;;22.90;99.90;;;;;;5038122;28;20588;-65
2021/07/10 07:48:04;;;;;;;8.73;8.00;;;22.80;99.90;;;;;;5038026;28;20636;-65
2021/07/10 07:50:30;;;;;;;8.63;7.37;;;23.10;99.90;;;;;;5037699;28;20197;-64
2021/07/10 07:52:55;;;;;;;6.93;6.27;;;22.90;99.90;;;;;;5037932;28;20460;-64
2021/07/10 07:55:21;;;;;;;7.30;6.67;;;22.80;99.90;;;;;;5038032;28;20177;-64
2021/07/10 07:57:47;;;;;;;6.27;5.77;;;22.80;99.90;;;;;;5038207;28;20177;-64
2021/07/10 08:00:15;;;;;;;8.10;7.50;;;23.20;99.90;;;;;;5037526;28;20198;-63
2021/07/10 08:02:42;;;;;;;7.30;6.60;;;23.60;99.90;;;;;;5037954;28;20179;-64
2021/07/10 08:05:09;;;;;;;8.03;7.33;;;23.40;99.90;;;;;;5037970;28;20785;-64
2021/07/10 08:07:34;;;;;;;6.43;6.03;;;23.50;99.90;;;;;;5037923;28;20413;-64
2021/07/10 08:10:00;;;;;;;6.70;6.20;;;23.70;99.90;;;;;;5037608;28;20432;-64
2021/07/10 08:12:25;;;;;;;6.83;6.23;;;24.20;99.90;;;;;;5037817;28;20202;-64
2021/07/10 08:14:51;;;;;;;4.87;4.57;;;24.40;99.90;;;;;;5037883;28;20652;-64
2021/07/10 08:17:16;;;;;;;7.00;6.07;;;24.90;99.90;;;;;;5037699;28;20627;-64
2021/07/10 08:19:42;;;;;;;7.17;6.60;;;25.10;99.90;;;;;;5034595;28;20550;-64
2021/07/10 08:22:07;;;;;;;6.07;5.53;;;24.70;99.90;;;;;;5034661;28;20243;-64
2021/07/10 08:24:33;;;;;;;6.27;5.87;;;24.90;99.90;;;;;;5025543;28;20182;-64
2021/07/10 08:26:59;;;;;;;6.80;6.20;;;25.20;99.90;;;;;;5014873;28;20270;-64
2021/07/10 08:29:24;;;;;;;6.47;5.93;;;24.80;99.90;;;;;;5032205;28;20626;-64
2021/07/10 08:31:51;;;;;;;7.30;6.33;;;25.10;99.90;;;;;;5034386;28;20278;-64
2021/07/10 08:34:16;;;;;;;6.10;5.50;;;25.40;99.90;;;;;;5034471;28;20590;-64
2021/07/10 08:36:42;;;;;;;5.77;5.17;;;25.60;99.90;;;;;;5034400;28;20413;-64
2021/07/10 08:39:08;;;;;;;5.50;5.10;;;25.90;99.90;;;;;;5034094;28;20177;-64
2021/07/10 08:41:35;;;;;;;6.77;5.87;;;26.00;99.90;;;;;;5034351;28;20194;-64
2021/07/10 08:44:00;;;;;;;5.10;4.70;;;25.90;99.90;;;;;;5034322;28;20186;-64
2021/07/10 08:46:26;;;;;;;6.20;5.30;;;25.90;99.90;;;;;;5034138;28;20425;-64
2021/07/10 08:48:52;;;;;;;5.47;5.17;;;25.80;99.90;;;;;;5033901;28;20178;-64
2021/07/10 08:51:18;;;;;;;4.57;4.27;;;25.60;99.90;;;;;;5034054;28;20193;-64
2021/07/10 08:53:43;;;;;;;4.20;4.00;;;25.80;99.90;;;;;;5034176;28;20182;-64
2021/07/10 08:56:09;;;;;;;4.90;4.50;;;25.60;99.90;;;;;;5034093;28;20807;-64
2021/07/10 08:58:36;;;;;;;4.43;4.10;;;26.00;99.90;;;;;;5033772;28;20170;-64
2021/07/10 09:01:04;;;;;;;4.13;3.67;;;26.10;99.90;;;;;;5033804;28;20452;-64
2021/07/10 09:03:30;;;;;;;5.20;4.80;;;26.10;99.90;;;;;;5033894;28;20512;-64
2021/07/10 09:05:56;;;;;;;4.70;4.20;;;26.70;99.70;;;;;;5033874;28;20421;-64
2021/07/10 09:08:24;;;;;;;3.30;3.10;;;26.90;98.80;;;;;;5033623;28;20429;-64
2021/07/10 09:10:57;;;;;;;5.63;5.23;;;27.10;97.10;;;;;;5034039;28;20560;-64
2021/07/10 09:13:42;;;;;;;4.03;3.80;;;27.40;97.60;;;;;;5033802;28;20464;-64
2021/07/10 09:16:10;;;;;;;4.50;4.17;;;27.50;97.10;;;;;;5033774;28;20500;-64
2021/07/10 09:18:37;;;;;;;4.13;3.83;;;27.80;96.30;;;;;;5032122;28;20495;-65
2021/07/10 09:21:03;;;;;;;4.63;4.33;;;27.40;95.50;;;;;;5033514;28;20467;-64
2021/07/10 09:23:40;;;;;;;4.07;3.77;;;27.20;95.00;;;;;;5033707;28;20427;-64
2021/07/10 09:26:19;;;;;;;4.23;3.93;;;26.90;95.80;;;;;;5033574;28;20188;-64
2021/07/10 09:29:03;;;;;;;4.40;3.73;;;26.80;96.00;;;;;;5033420;28;20770;-64
2021/07/10 09:31:33;;;;;;;4.20;3.93;;;27.20;95.90;;;;;;5033104;28;20456;-64
2021/07/10 09:34:00;;;;;;;4.43;3.93;;;27.70;94.50;;;;;;5033495;28;20425;-64
2021/07/10 09:36:26;;;;;;;5.83;3.03;;;27.90;93.40;;;;;;5033412;28;20420;-64
2021/07/10 09:38:53;;;;;;;4.10;3.80;;;28.00;92.00;;;;;;5032991;28;20427;-64
2021/07/10 09:41:25;;;;;;;4.87;4.57;;;27.80;92.20;;;;;;5033248;28;20273;-63
2021/07/10 09:43:55;;;;;;;4.10;3.70;;;27.00;94.00;;;;;;5033233;28;20417;-64
2021/07/10 09:46:26;;;;;;;4.60;4.23;;;27.10;94.60;;;;;;5033161;28;20420;-64
2021/07/10 09:48:51;;;;;;;3.80;3.50;;;27.60;94.60;;;;;;5032739;28;20428;-64
2021/07/10 09:51:24;;;;;;;4.20;3.80;;;27.90;92.60;;;;;;5032808;28;20429;-64
2021/07/10 09:53:59;;;;;;;4.33;4.07;;;27.70;93.10;;;;;;5032973;28;20683;-64
2021/07/10 09:56:25;;;;;;;4.60;4.20;;;27.10;93.80;;;;;;5032826;28;20420;-64
2021/07/10 09:58:51;;;;;;;4.07;3.87;;;27.70;93.00;;;;;;5032617;28;20417;-64
2021/07/10 10:01:34;;;;;;;3.87;3.67;;;28.50;91.60;;;;;;5033243;28;20300;-64
2021/07/10 10:04:02;;;;;;;4.50;4.20;;;29.90;91.30;;;;;;5032810;28;20171;-65
2021/07/10 10:06:32;;;;;;;3.37;3.17;;;30.40;88.80;;;;;;5032833;28;20428;-65
2021/07/10 10:08:59;;;;;;;4.00;3.70;;;30.70;87.00;;;;;;5032446;28;20416;-65
2021/07/10 10:11:48;;;;;;;5.53;4.27;;;29.90;84.00;;;;;;5032612;28;20421;-64
2021/07/10 10:14:14;;;;;;;3.87;3.63;;;30.40;84.50;;;;;;5032670;28;20910;-64
2021/07/10 10:16:45;;;;;;;4.83;3.83;;;30.90;81.70;;;;;;5032589;28;20429;-64
2021/07/10 10:19:11;;;;;;;3.60;3.30;;;28.90;81.90;;;;;;5032190;28;20176;-65
2021/07/10 10:21:37;;;;;;;4.40;4.10;;;28.50;84.40;;;;;;5032558;28;20428;-66
2021/07/10 10:24:04;;;;;;;4.03;3.73;;;29.50;82.60;;;;;;5032585;28;20428;-66
2021/07/10 10:26:29;;;;;;;4.20;3.80;;;29.80;82.20;;;;;;5032325;28;20793;-66
2021/07/10 10:28:56;;;;;;;3.63;3.43;;;31.00;78.70;;;;;;5032077;28;20425;-66
2021/07/10 10:31:22;;;;;;;7.20;3.80;;;32.00;76.10;;;;;;5032474;28;20258;-65
2021/07/10 10:33:49;;;;;;;4.27;3.97;;;33.30;73.40;;;;;;5032341;28;20519;-65
2021/07/10 10:36:15;;;;;;;4.73;3.57;;;31.60;71.60;;;;;;5032366;28;20604;-65
2021/07/10 10:38:40;;;;;;;6.73;3.90;;;30.50;73.60;;;;;;5032066;28;20437;-65
2021/07/10 10:41:06;;;;;;;3.93;3.63;;;30.00;76.00;;;;;;5032055;28;20198;-65
2021/07/10 10:43:32;;;;;;;3.37;3.17;;;30.10;77.40;;;;;;5031538;28;20232;-66
2021/07/10 10:46:11;;;;;;;3.97;3.73;;;30.90;75.40;;;;;;5032237;28;20228;-66
2021/07/10 10:48:42;;;;;;;3.47;3.20;;;33.40;70.90;;;;;;5031841;28;20420;-65
2021/07/10 10:51:27;;;;;;;4.63;3.77;;;35.10;65.80;;;;;;5031966;28;20448;-65
2021/07/10 10:54:13;;;;;;;4.03;3.73;;;35.20;62.50;;;;;;5032094;28;20417;-65
2021/07/10 10:56:39;;;;;;;3.70;3.50;;;36.30;59.40;;;;;;5017213;28;20465;-66
2021/07/10 10:59:37;;;;;;;3.20;3.00;;;36.50;56.80;;;;;;5011758;28;20469;-65
2021/07/10 11:02:23;;;;;;;4.27;4.07;;;37.80;53.70;;;;;;5012066;28;20171;-65
2021/07/10 11:04:55;;;;;;;4.00;3.70;;;38.60;51.00;;;;;;5012054;28;21004;-65
2021/07/10 11:07:27;;;;;;;3.13;2.93;;;39.50;50.00;;;;;;5012113;28;20509;-65
2021/07/10 11:10:13;;;;;;;3.50;3.30;;;38.80;49.30;;;;;;5011804;28;20430;-65
2021/07/10 11:12:58;;;;;;;3.37;3.17;;;38.50;48.70;;;;;;5012349;28;20417;-64
2021/07/10 11:15:30;;;;;;;3.63;3.33;;;39.30;46.60;;;;;;5012036;28;21025;-64
2021/07/10 11:17:57;;;;;;;3.90;3.70;;;38.50;46.70;;;;;;5012003;28;20414;-63
2021/07/10 11:20:41;;;;;;;4.13;3.83;;;37.30;47.90;;;;;;5011712;28;20437;-62
2021/07/10 11:23:08;;;;;;;3.53;3.33;;;37.20;49.00;;;;;;5011964;28;20970;-61
2021/07/10 11:25:49;;;;;;;3.73;3.53;;;38.20;47.90;;;;;;5012085;28;20421;-63
2021/07/10 11:28:19;;;;;;;3.17;2.97;;;39.20;46.10;;;;;;5011895;28;20429;-63
2021/07/10 11:30:47;;;;;;;3.63;3.33;;;40.60;45.00;;;;;;5011760;28;20430;-64
2021/07/10 11:33:13;;;;;;;3.70;3.50;;;40.50;43.70;;;;;;5011630;28;20422;-64
2021/07/10 11:35:43;;;;;;;3.87;3.47;;;40.60;44.40;;;;;;5012162;28;20416;-62
2021/07/10 11:38:29;;;;;;;4.00;3.70;;;37.80;44.10;;;;;;5012122;28;20449;-63
2021/07/10 11:41:00;;;;;;;4.17;3.83;;;38.50;45.30;;;;;;5011632;28;20451;-61
2021/07/10 11:43:37;;;;;;;3.47;3.10;;;41.00;43.30;;;;;;5011756;28;20457;-63
2021/07/10 11:46:03;;;;;;;3.50;3.30;;;40.60;42.70;;;;;;5011791;28;20848;-64
2021/07/10 11:48:32;;;;;;;3.60;3.40;;;41.50;41.80;;;;;;5011442;28;20501;-63
2021/07/10 11:51:04;;;;;;;4.10;3.70;;;42.30;41.10;;;;;;5011730;28;20683;-64
2021/07/10 11:53:31;;;;;;;3.00;2.90;;;42.40;40.40;;;;;;5012248;28;20422;-64
2021/07/10 11:55:58;;;;;;;3.30;3.17;;;43.70;39.90;;;;;;5023980;28;20435;-63
2021/07/10 11:58:25;;;;;;;3.27;3.07;;;43.80;39.00;;;;;;5034796;28;20910;-63
2021/07/10 12:00:50;;;;;;;3.00;2.90;;;43.10;39.20;;;;;;5034932;28;20460;-64
2021/07/10 12:03:19;;;;;;;3.90;3.70;;;44.00;38.50;;;;;;5034857;28;20490;-63
2021/07/10 12:05:45;;;;;;;3.93;3.73;;;43.30;38.20;;;;;;5034963;28;20170;-63
2021/07/10 12:08:10;;;;;;;3.53;3.33;;;41.00;40.70;;;;;;5035322;28;20845;-64
2021/07/10 12:10:39;;;;;;;3.83;3.63;;;41.10;40.50;;;;;;5034547;28;20194;-63
2021/07/10 12:13:23;;;;;;;4.50;4.10;;;41.20;41.00;;;;;;5034847;28;20661;-63
2021/07/10 12:15:56;;;;;;;4.50;3.53;;;40.80;40.60;;;;;;5035178;28;20833;-63
2021/07/10 12:18:23;;;;;;;4.23;3.93;;;39.20;40.00;;;;;;5034518;28;20515;-61
2021/07/10 12:20:56;;;;;;;4.13;3.83;;;38.70;42.70;;;;;;5034702;28;20847;-62
2021/07/10 12:23:24;;;;;;;4.10;3.73;;;40.30;41.20;;;;;;5034129;28;20816;-63
2021/07/10 12:25:59;;;;;;;3.73;3.50;;;37.90;41.40;;;;;;5034548;28;20766;-63
2021/07/10 12:28:40;;;;;;;4.20;4.00;;;36.90;43.70;;;;;;5016582;28;20458;-62
2021/07/10 12:31:13;;;;;;;4.40;4.10;;;35.10;45.30;;;;;;5034548;28;20458;-66
2021/07/10 12:33:41;;;;;;;4.73;4.00;;;34.80;46.10;;;;;;5034575;28;20420;-66
2021/07/10 12:36:11;;;;;;;4.07;3.87;;;36.00;46.20;;;;;;5034504;28;20421;-65